MAPA DE AEROPUERTO

INFORMACIÓN METAR y TAF

METAR FOR LEBL
ADDS - METARS form results

(2149 UTC 25 September 2020)
Data provider http://aviationweather.gov/metar/data/
 
METAR text: LEBL 252130Z 31015KT 280V340 CAVOK 16/05 Q1016 NOSIG
Conditions at: LEBL (BARCELONA AIRPOR, ES) observed 2130 UTC 25 September 2020
Temperature: 16.0°C (61°F)
Dewpoint: 5.0°C (41°F) [RH = 48%]
Pressure (altimeter): 30.00 inches Hg (1016.0 mb)
Winds: from the NW (310 degrees) at 17 MPH (15 knots; 7.7 m/s)
Visibility: 6 or more miles (10+ km)
Ceiling: ceiling and visibility are OK
Clouds: unknown
Weather: no significant weather observed at this time

METAR text: LEBL 252100Z 31014KT CAVOK 16/05 Q1015 NOSIG
Conditions at: LEBL (BARCELONA AIRPOR, ES) observed 2100 UTC 25 September 2020
Temperature: 16.0°C (61°F)
Dewpoint: 5.0°C (41°F) [RH = 48%]
Pressure (altimeter): 29.97 inches Hg (1015.0 mb)
Winds: from the NW (310 degrees) at 16 MPH (14 knots; 7.2 m/s)
Visibility: 6 or more miles (10+ km)
Ceiling: ceiling and visibility are OK
Clouds: unknown
Weather: no significant weather observed at this time

Forecast for: LEBL (BARCELONA AIRPOR, ES)
Text: TAF LEBL 251700Z 2518/2618 31015KT 9999 FEW020 TX26/2612Z TN14/2606Z
Forecast period: 1800 UTC 25 September 2020 to 0600 UTC 26 September 2020
Forecast type: FROM: standard forecast or significant change
Winds: from the NW (310 degrees) at 17 MPH (15 knots; 7.7 m/s)
Visibility: 6 or more miles (10+ km)
Ceiling: at least 12,000 feet AGL
Clouds: few clouds at 2000 feet AGL
Weather: no significant weather forecast for this period
Text: BECMG 2606/2608 VRB05KT
Forecast period: 0600 to 1800 UTC 26 September 2020
Forecast type: BECOMING: Conditions expected to become as follows by 0800 UTC 26 September 2020
Winds: variable direction winds at 6 MPH (5 knots; 2.6 m/s)
Visibility: 6 or more miles (10+ km)
Ceiling: at least 12,000 feet AGL
Clouds: few clouds at 2000 feet AGL
Weather: no significant weather forecast for this period